sensor_id;sensor_type;location;lat;lon;timestamp;P1;durP1;ratioP1;P2;durP2;ratioP2
19798;SDS011;10059;59.850;10.454;2022-12-18T00:00:48;78.70;;;26.33;;
19798;SDS011;10059;59.850;10.454;2022-12-18T00:03:15;72.57;;;27.03;;
19798;SDS011;10059;59.850;10.454;2022-12-18T00:05:48;76.30;;;28.30;;
19798;SDS011;10059;59.850;10.454;2022-12-18T00:08:18;77.90;;;26.70;;
19798;SDS011;10059;59.850;10.454;2022-12-18T00:10:45;59.87;;;24.27;;
19798;SDS011;10059;59.850;10.454;2022-12-18T00:13:13;76.03;;;26.33;;
19798;SDS011;10059;59.850;10.454;2022-12-18T00:15:41;77.40;;;26.20;;
19798;SDS011;10059;59.850;10.454;2022-12-18T00:18:08;77.03;;;26.03;;
19798;SDS011;10059;59.850;10.454;2022-12-18T00:20:35;84.50;;;27.63;;
19798;SDS011;10059;59.850;10.454;2022-12-18T00:23:03;80.87;;;28.77;;
19798;SDS011;10059;59.850;10.454;2022-12-18T00:25:32;86.83;;;32.80;;
19798;SDS011;10059;59.850;10.454;2022-12-18T00:27:59;82.87;;;31.50;;
19798;SDS011;10059;59.850;10.454;2022-12-18T00:30:26;85.03;;;29.83;;
19798;SDS011;10059;59.850;10.454;2022-12-18T00:32:54;75.90;;;27.43;;
19798;SDS011;10059;59.850;10.454;2022-12-18T00:35:21;83.60;;;29.17;;
19798;SDS011;10059;59.850;10.454;2022-12-18T00:37:48;79.13;;;28.73;;
19798;SDS011;10059;59.850;10.454;2022-12-18T00:40:15;82.13;;;29.47;;
19798;SDS011;10059;59.850;10.454;2022-12-18T00:42:42;79.77;;;28.60;;
19798;SDS011;10059;59.850;10.454;2022-12-18T00:45:23;80.00;;;28.13;;
19798;SDS011;10059;59.850;10.454;2022-12-18T00:47:51;74.10;;;26.90;;
19798;SDS011;10059;59.850;10.454;2022-12-18T00:50:20;78.60;;;29.37;;
19798;SDS011;10059;59.850;10.454;2022-12-18T00:52:47;88.53;;;30.63;;
19798;SDS011;10059;59.850;10.454;2022-12-18T00:55:14;80.30;;;29.43;;
19798;SDS011;10059;59.850;10.454;2022-12-18T00:57:41;92.33;;;30.97;;
19798;SDS011;10059;59.850;10.454;2022-12-18T01:00:10;83.43;;;30.33;;
19798;SDS011;10059;59.850;10.454;2022-12-18T01:02:38;90.97;;;31.20;;
19798;SDS011;10059;59.850;10.454;2022-12-18T01:05:06;77.23;;;28.97;;
19798;SDS011;10059;59.850;10.454;2022-12-18T01:07:35;80.07;;;28.80;;
19798;SDS011;10059;59.850;10.454;2022-12-18T01:10:02;79.07;;;27.93;;
19798;SDS011;10059;59.850;10.454;2022-12-18T01:12:30;81.70;;;29.37;;
19798;SDS011;10059;59.850;10.454;2022-12-18T01:14:57;85.13;;;30.07;;
19798;SDS011;10059;59.850;10.454;2022-12-18T01:17:24;81.80;;;28.67;;
19798;SDS011;10059;59.850;10.454;2022-12-18T01:19:51;86.00;;;29.10;;
19798;SDS011;10059;59.850;10.454;2022-12-18T01:22:18;79.87;;;28.80;;
19798;SDS011;10059;59.850;10.454;2022-12-18T01:24:46;83.30;;;29.37;;
19798;SDS011;10059;59.850;10.454;2022-12-18T01:27:13;90.53;;;29.93;;
19798;SDS011;10059;59.850;10.454;2022-12-18T01:29:40;83.07;;;27.67;;
19798;SDS011;10059;59.850;10.454;2022-12-18T01:32:07;78.90;;;28.20;;
19798;SDS011;10059;59.850;10.454;2022-12-18T01:34:35;80.43;;;28.37;;
19798;SDS011;10059;59.850;10.454;2022-12-18T01:37:02;86.63;;;28.47;;
19798;SDS011;10059;59.850;10.454;2022-12-18T01:39:28;80.83;;;29.83;;
19798;SDS011;10059;59.850;10.454;2022-12-18T01:41:58;78.83;;;28.60;;
19798;SDS011;10059;59.850;10.454;2022-12-18T01:47:20;74.50;;;27.13;;
19798;SDS011;10059;59.850;10.454;2022-12-18T01:49:49;81.60;;;27.90;;
19798;SDS011;10059;59.850;10.454;2022-12-18T01:52:16;75.93;;;26.63;;
19798;SDS011;10059;59.850;10.454;2022-12-18T01:54:45;69.57;;;26.20;;
19798;SDS011;10059;59.850;10.454;2022-12-18T01:57:14;70.97;;;25.43;;
19798;SDS011;10059;59.850;10.454;2022-12-18T01:59:42;72.80;;;25.83;;
19798;SDS011;10059;59.850;10.454;2022-12-18T02:02:11;73.47;;;25.37;;
19798;SDS011;10059;59.850;10.454;2022-12-18T02:04:38;69.57;;;26.20;;
19798;SDS011;10059;59.850;10.454;2022-12-18T02:07:07;76.33;;;26.77;;
19798;SDS011;10059;59.850;10.454;2022-12-18T02:09:43;71.37;;;24.93;;
19798;SDS011;10059;59.850;10.454;2022-12-18T02:12:16;73.13;;;26.00;;
19798;SDS011;10059;59.850;10.454;2022-12-18T02:14:47;70.13;;;25.73;;
19798;SDS011;10059;59.850;10.454;2022-12-18T02:17:20;69.30;;;25.27;;
19798;SDS011;10059;59.850;10.454;2022-12-18T02:19:55;81.70;;;25.77;;
19798;SDS011;10059;59.850;10.454;2022-12-18T02:22:34;74.13;;;23.30;;
19798;SDS011;10059;59.850;10.454;2022-12-18T02:25:16;74.37;;;25.23;;
19798;SDS011;10059;59.850;10.454;2022-12-18T02:27:52;61.10;;;24.43;;
19798;SDS011;10059;59.850;10.454;2022-12-18T02:30:20;75.20;;;26.23;;
19798;SDS011;10059;59.850;10.454;2022-12-18T02:32:49;72.40;;;25.40;;
19798;SDS011;10059;59.850;10.454;2022-12-18T02:35:20;73.67;;;26.77;;
19798;SDS011;10059;59.850;10.454;2022-12-18T02:37:50;79.23;;;27.53;;
19798;SDS011;10059;59.850;10.454;2022-12-18T02:40:19;70.53;;;27.27;;
19798;SDS011;10059;59.850;10.454;2022-12-18T02:42:47;80.50;;;27.57;;
19798;SDS011;10059;59.850;10.454;2022-12-18T02:45:15;89.43;;;28.63;;
19798;SDS011;10059;59.850;10.454;2022-12-18T02:47:43;85.13;;;30.50;;
19798;SDS011;10059;59.850;10.454;2022-12-18T02:50:13;75.87;;;27.87;;
19798;SDS011;10059;59.850;10.454;2022-12-18T02:52:50;84.43;;;27.43;;
19798;SDS011;10059;59.850;10.454;2022-12-18T02:55:28;87.90;;;27.63;;
19798;SDS011;10059;59.850;10.454;2022-12-18T02:58:06;79.10;;;26.87;;
19798;SDS011;10059;59.850;10.454;2022-12-18T03:00:42;75.80;;;26.77;;
19798;SDS011;10059;59.850;10.454;2022-12-18T03:03:16;79.47;;;28.07;;
19798;SDS011;10059;59.850;10.454;2022-12-18T03:05:50;73.47;;;26.73;;
19798;SDS011;10059;59.850;10.454;2022-12-18T03:08:20;80.30;;;28.77;;
19798;SDS011;10059;59.850;10.454;2022-12-18T03:10:51;75.63;;;27.13;;
19798;SDS011;10059;59.850;10.454;2022-12-18T03:13:25;72.33;;;26.20;;
19798;SDS011;10059;59.850;10.454;2022-12-18T03:15:58;77.57;;;26.20;;
19798;SDS011;10059;59.850;10.454;2022-12-18T03:18:29;78.17;;;25.53;;
19798;SDS011;10059;59.850;10.454;2022-12-18T03:21:00;71.33;;;25.10;;
19798;SDS011;10059;59.850;10.454;2022-12-18T03:23:32;69.63;;;25.10;;
19798;SDS011;10059;59.850;10.454;2022-12-18T03:26:03;70.37;;;25.30;;
19798;SDS011;10059;59.850;10.454;2022-12-18T03:28:34;74.90;;;25.30;;
19798;SDS011;10059;59.850;10.454;2022-12-18T03:31:06;61.10;;;23.87;;
19798;SDS011;10059;59.850;10.454;2022-12-18T03:33:37;69.10;;;24.93;;
19798;SDS011;10059;59.850;10.454;2022-12-18T03:36:07;76.07;;;24.43;;
19798;SDS011;10059;59.850;10.454;2022-12-18T03:38:34;65.33;;;24.03;;
19798;SDS011;10059;59.850;10.454;2022-12-18T03:41:03;65.43;;;24.17;;
19798;SDS011;10059;59.850;10.454;2022-12-18T03:43:39;62.00;;;23.97;;
19798;SDS011;10059;59.850;10.454;2022-12-18T03:46:14;67.00;;;23.87;;
19798;SDS011;10059;59.850;10.454;2022-12-18T03:48:46;68.47;;;24.37;;
19798;SDS011;10059;59.850;10.454;2022-12-18T03:51:19;67.53;;;25.63;;
19798;SDS011;10059;59.850;10.454;2022-12-18T03:53:51;66.33;;;24.07;;
19798;SDS011;10059;59.850;10.454;2022-12-18T03:56:23;68.23;;;24.87;;
19798;SDS011;10059;59.850;10.454;2022-12-18T03:58:51;69.37;;;25.63;;
19798;SDS011;10059;59.850;10.454;2022-12-18T04:01:22;61.47;;;23.20;;
19798;SDS011;10059;59.850;10.454;2022-12-18T04:03:54;64.93;;;24.80;;
19798;SDS011;10059;59.850;10.454;2022-12-18T04:06:22;69.97;;;25.30;;
19798;SDS011;10059;59.850;10.454;2022-12-18T04:08:49;69.90;;;25.50;;
19798;SDS011;10059;59.850;10.454;2022-12-18T04:11:16;69.93;;;25.50;;
19798;SDS011;10059;59.850;10.454;2022-12-18T04:13:43;68.97;;;24.83;;
19798;SDS011;10059;59.850;10.454;2022-12-18T04:16:10;71.90;;;25.00;;
19798;SDS011;10059;59.850;10.454;2022-12-18T04:18:38;70.83;;;25.50;;
19798;SDS011;10059;59.850;10.454;2022-12-18T04:21:05;67.23;;;24.73;;
19798;SDS011;10059;59.850;10.454;2022-12-18T04:23:32;68.03;;;24.87;;
19798;SDS011;10059;59.850;10.454;2022-12-18T04:25:59;75.43;;;25.40;;
19798;SDS011;10059;59.850;10.454;2022-12-18T04:28:26;65.73;;;24.37;;
19798;SDS011;10059;59.850;10.454;2022-12-18T04:30:53;73.23;;;24.33;;
19798;SDS011;10059;59.850;10.454;2022-12-18T04:33:20;65.90;;;23.47;;
19798;SDS011;10059;59.850;10.454;2022-12-18T04:35:48;64.77;;;23.87;;
19798;SDS011;10059;59.850;10.454;2022-12-18T04:38:15;62.60;;;22.90;;
19798;SDS011;10059;59.850;10.454;2022-12-18T04:40:42;69.40;;;22.77;;
19798;SDS011;10059;59.850;10.454;2022-12-18T04:43:09;72.97;;;23.03;;
19798;SDS011;10059;59.850;10.454;2022-12-18T04:45:36;66.57;;;23.13;;
19798;SDS011;10059;59.850;10.454;2022-12-18T04:48:03;59.10;;;21.13;;
19798;SDS011;10059;59.850;10.454;2022-12-18T04:50:30;59.10;;;21.50;;
19798;SDS011;10059;59.850;10.454;2022-12-18T04:52:58;60.83;;;21.40;;
19798;SDS011;10059;59.850;10.454;2022-12-18T04:55:25;55.03;;;20.73;;
19798;SDS011;10059;59.850;10.454;2022-12-18T04:57:52;50.30;;;20.13;;
19798;SDS011;10059;59.850;10.454;2022-12-18T05:00:19;54.23;;;21.10;;
19798;SDS011;10059;59.850;10.454;2022-12-18T05:02:47;53.90;;;20.77;;
19798;SDS011;10059;59.850;10.454;2022-12-18T05:05:14;58.13;;;21.50;;
19798;SDS011;10059;59.850;10.454;2022-12-18T05:07:41;51.27;;;18.80;;
19798;SDS011;10059;59.850;10.454;2022-12-18T05:10:09;54.37;;;19.90;;
19798;SDS011;10059;59.850;10.454;2022-12-18T05:12:36;54.97;;;20.30;;
19798;SDS011;10059;59.850;10.454;2022-12-18T05:15:22;53.37;;;20.33;;
19798;SDS011;10059;59.850;10.454;2022-12-18T05:17:50;52.07;;;19.27;;
19798;SDS011;10059;59.850;10.454;2022-12-18T05:20:17;56.50;;;20.27;;
19798;SDS011;10059;59.850;10.454;2022-12-18T05:22:44;56.13;;;20.47;;
19798;SDS011;10059;59.850;10.454;2022-12-18T05:25:12;53.07;;;19.60;;
19798;SDS011;10059;59.850;10.454;2022-12-18T05:27:39;55.57;;;19.33;;
19798;SDS011;10059;59.850;10.454;2022-12-18T05:30:06;54.63;;;18.60;;
19798;SDS011;10059;59.850;10.454;2022-12-18T05:32:34;53.17;;;20.23;;
19798;SDS011;10059;59.850;10.454;2022-12-18T05:35:01;55.43;;;20.03;;
19798;SDS011;10059;59.850;10.454;2022-12-18T05:37:28;50.40;;;18.60;;
19798;SDS011;10059;59.850;10.454;2022-12-18T05:39:54;52.13;;;19.27;;
19798;SDS011;10059;59.850;10.454;2022-12-18T05:42:23;55.73;;;18.90;;
19798;SDS011;10059;59.850;10.454;2022-12-18T05:44:49;50.80;;;18.73;;
19798;SDS011;10059;59.850;10.454;2022-12-18T05:47:16;59.30;;;19.37;;
19798;SDS011;10059;59.850;10.454;2022-12-18T05:49:43;60.73;;;20.80;;
19798;SDS011;10059;59.850;10.454;2022-12-18T05:52:10;57.27;;;19.40;;
19798;SDS011;10059;59.850;10.454;2022-12-18T05:54:37;61.53;;;19.17;;
19798;SDS011;10059;59.850;10.454;2022-12-18T05:57:04;57.40;;;20.90;;
19798;SDS011;10059;59.850;10.454;2022-12-18T05:59:33;64.77;;;21.57;;
19798;SDS011;10059;59.850;10.454;2022-12-18T06:01:59;62.10;;;21.60;;
19798;SDS011;10059;59.850;10.454;2022-12-18T06:04:26;64.53;;;21.33;;
19798;SDS011;10059;59.850;10.454;2022-12-18T06:06:56;65.40;;;21.03;;
19798;SDS011;10059;59.850;10.454;2022-12-18T06:09:23;58.07;;;21.03;;
19798;SDS011;10059;59.850;10.454;2022-12-18T06:11:51;66.90;;;22.00;;
19798;SDS011;10059;59.850;10.454;2022-12-18T06:14:18;60.13;;;20.90;;
19798;SDS011;10059;59.850;10.454;2022-12-18T06:16:46;58.20;;;20.07;;
19798;SDS011;10059;59.850;10.454;2022-12-18T06:19:14;67.20;;;22.93;;
19798;SDS011;10059;59.850;10.454;2022-12-18T06:21:42;67.30;;;21.30;;
19798;SDS011;10059;59.850;10.454;2022-12-18T06:24:08;63.90;;;20.87;;
19798;SDS011;10059;59.850;10.454;2022-12-18T06:26:36;76.97;;;23.83;;
19798;SDS011;10059;59.850;10.454;2022-12-18T06:29:04;74.13;;;23.20;;
19798;SDS011;10059;59.850;10.454;2022-12-18T06:31:31;65.93;;;21.37;;
19798;SDS011;10059;59.850;10.454;2022-12-18T06:33:59;66.63;;;21.20;;
19798;SDS011;10059;59.850;10.454;2022-12-18T06:36:28;89.00;;;23.53;;
19798;SDS011;10059;59.850;10.454;2022-12-18T06:38:55;79.57;;;22.83;;
19798;SDS011;10059;59.850;10.454;2022-12-18T06:41:22;69.80;;;22.33;;
19798;SDS011;10059;59.850;10.454;2022-12-18T06:43:49;72.37;;;20.27;;
19798;SDS011;10059;59.850;10.454;2022-12-18T06:46:16;62.63;;;20.17;;
19798;SDS011;10059;59.850;10.454;2022-12-18T06:48:45;55.37;;;18.87;;
19798;SDS011;10059;59.850;10.454;2022-12-18T06:51:16;49.43;;;17.30;;
19798;SDS011;10059;59.850;10.454;2022-12-18T06:53:44;49.97;;;16.93;;
19798;SDS011;10059;59.850;10.454;2022-12-18T06:56:11;50.60;;;16.50;;
19798;SDS011;10059;59.850;10.454;2022-12-18T06:58:37;49.23;;;16.00;;
19798;SDS011;10059;59.850;10.454;2022-12-18T07:01:05;40.63;;;14.47;;
19798;SDS011;10059;59.850;10.454;2022-12-18T07:03:35;39.50;;;13.03;;
19798;SDS011;10059;59.850;10.454;2022-12-18T07:06:02;35.20;;;13.17;;
19798;SDS011;10059;59.850;10.454;2022-12-18T07:08:31;37.53;;;13.20;;
19798;SDS011;10059;59.850;10.454;2022-12-18T07:10:58;32.03;;;12.07;;
19798;SDS011;10059;59.850;10.454;2022-12-18T07:13:28;31.80;;;11.50;;
19798;SDS011;10059;59.850;10.454;2022-12-18T07:15:55;29.10;;;11.03;;
19798;SDS011;10059;59.850;10.454;2022-12-18T07:18:28;32.13;;;12.23;;
19798;SDS011;10059;59.850;10.454;2022-12-18T07:20:55;27.17;;;10.83;;
19798;SDS011;10059;59.850;10.454;2022-12-18T07:23:22;52.80;;;24.20;;
19798;SDS011;10059;59.850;10.454;2022-12-18T07:25:50;75.43;;;39.30;;
19798;SDS011;10059;59.850;10.454;2022-12-18T07:28:17;65.53;;;33.97;;
19798;SDS011;10059;59.850;10.454;2022-12-18T07:30:44;37.60;;;12.60;;
19798;SDS011;10059;59.850;10.454;2022-12-18T07:33:11;44.37;;;22.00;;
19798;SDS011;10059;59.850;10.454;2022-12-18T07:35:38;98.77;;;52.73;;
19798;SDS011;10059;59.850;10.454;2022-12-18T07:38:05;25.70;;;14.67;;
19798;SDS011;10059;59.850;10.454;2022-12-18T07:40:32;37.97;;;19.47;;
19798;SDS011;10059;59.850;10.454;2022-12-18T07:43:00;24.37;;;10.80;;
19798;SDS011;10059;59.850;10.454;2022-12-18T07:45:26;40.70;;;18.53;;
19798;SDS011;10059;59.850;10.454;2022-12-18T07:47:56;29.00;;;13.13;;
19798;SDS011;10059;59.850;10.454;2022-12-18T07:50:23;30.73;;;12.90;;
19798;SDS011;10059;59.850;10.454;2022-12-18T07:52:50;25.97;;;12.67;;
19798;SDS011;10059;59.850;10.454;2022-12-18T07:55:17;24.03;;;10.47;;
19798;SDS011;10059;59.850;10.454;2022-12-18T07:57:44;25.93;;;12.10;;
19798;SDS011;10059;59.850;10.454;2022-12-18T08:00:13;30.23;;;15.27;;
19798;SDS011;10059;59.850;10.454;2022-12-18T08:02:41;17.80;;;9.87;;
19798;SDS011;10059;59.850;10.454;2022-12-18T08:05:08;18.73;;;9.80;;
19798;SDS011;10059;59.850;10.454;2022-12-18T08:07:35;19.03;;;10.30;;
19798;SDS011;10059;59.850;10.454;2022-12-18T08:10:02;27.37;;;12.20;;
19798;SDS011;10059;59.850;10.454;2022-12-18T08:12:29;28.33;;;11.40;;
19798;SDS011;10059;59.850;10.454;2022-12-18T08:14:55;28.30;;;12.13;;
19798;SDS011;10059;59.850;10.454;2022-12-18T08:17:23;27.80;;;11.87;;
19798;SDS011;10059;59.850;10.454;2022-12-18T08:19:50;28.37;;;14.07;;
19798;SDS011;10059;59.850;10.454;2022-12-18T08:22:17;16.67;;;9.37;;
19798;SDS011;10059;59.850;10.454;2022-12-18T08:24:44;23.43;;;9.33;;
19798;SDS011;10059;59.850;10.454;2022-12-18T08:27:11;21.27;;;10.77;;
19798;SDS011;10059;59.850;10.454;2022-12-18T08:29:38;48.47;;;22.30;;
19798;SDS011;10059;59.850;10.454;2022-12-18T08:32:05;26.50;;;12.77;;
19798;SDS011;10059;59.850;10.454;2022-12-18T08:34:33;58.67;;;29.87;;
19798;SDS011;10059;59.850;10.454;2022-12-18T08:37:00;45.27;;;19.77;;
19798;SDS011;10059;59.850;10.454;2022-12-18T08:39:27;39.63;;;17.20;;
19798;SDS011;10059;59.850;10.454;2022-12-18T08:41:54;30.10;;;13.50;;
19798;SDS011;10059;59.850;10.454;2022-12-18T08:44:38;31.90;;;11.70;;
19798;SDS011;10059;59.850;10.454;2022-12-18T08:47:06;35.80;;;12.83;;
19798;SDS011;10059;59.850;10.454;2022-12-18T08:49:35;36.87;;;12.93;;
19798;SDS011;10059;59.850;10.454;2022-12-18T08:52:02;32.43;;;14.70;;
19798;SDS011;10059;59.850;10.454;2022-12-18T08:54:29;56.50;;;23.47;;
19798;SDS011;10059;59.850;10.454;2022-12-18T08:56:56;70.17;;;35.10;;
19798;SDS011;10059;59.850;10.454;2022-12-18T08:59:23;26.63;;;11.10;;
19798;SDS011;10059;59.850;10.454;2022-12-18T09:01:53;32.97;;;13.53;;
19798;SDS011;10059;59.850;10.454;2022-12-18T09:04:20;35.33;;;13.30;;
19798;SDS011;10059;59.850;10.454;2022-12-18T09:06:48;41.23;;;18.43;;
19798;SDS011;10059;59.850;10.454;2022-12-18T09:09:15;33.53;;;17.40;;
19798;SDS011;10059;59.850;10.454;2022-12-18T09:11:42;28.43;;;15.53;;
19798;SDS011;10059;59.850;10.454;2022-12-18T09:14:09;59.47;;;28.60;;
19798;SDS011;10059;59.850;10.454;2022-12-18T09:16:36;47.53;;;22.87;;
19798;SDS011;10059;59.850;10.454;2022-12-18T09:19:03;31.67;;;13.53;;
19798;SDS011;10059;59.850;10.454;2022-12-18T09:21:31;36.77;;;14.10;;
19798;SDS011;10059;59.850;10.454;2022-12-18T09:24:01;41.47;;;15.47;;
19798;SDS011;10059;59.850;10.454;2022-12-18T09:26:27;72.37;;;28.43;;
19798;SDS011;10059;59.850;10.454;2022-12-18T09:28:55;63.90;;;28.90;;
19798;SDS011;10059;59.850;10.454;2022-12-18T09:31:22;41.37;;;18.03;;
19798;SDS011;10059;59.850;10.454;2022-12-18T09:33:50;32.73;;;15.93;;
19798;SDS011;10059;59.850;10.454;2022-12-18T09:36:17;28.23;;;13.23;;
19798;SDS011;10059;59.850;10.454;2022-12-18T09:38:45;19.40;;;9.77;;
19798;SDS011;10059;59.850;10.454;2022-12-18T09:44:09;63.23;;;31.03;;
19798;SDS011;10059;59.850;10.454;2022-12-18T09:46:43;38.00;;;18.67;;
19798;SDS011;10059;59.850;10.454;2022-12-18T09:49:14;34.23;;;16.17;;
19798;SDS011;10059;59.850;10.454;2022-12-18T09:51:44;22.73;;;10.37;;
19798;SDS011;10059;59.850;10.454;2022-12-18T09:54:14;20.43;;;10.13;;
19798;SDS011;10059;59.850;10.454;2022-12-18T09:56:46;14.83;;;7.73;;
19798;SDS011;10059;59.850;10.454;2022-12-18T09:59:15;18.43;;;8.83;;
19798;SDS011;10059;59.850;10.454;2022-12-18T10:01:47;20.33;;;10.13;;
19798;SDS011;10059;59.850;10.454;2022-12-18T10:04:14;27.73;;;13.60;;
19798;SDS011;10059;59.850;10.454;2022-12-18T10:06:42;25.03;;;13.10;;
19798;SDS011;10059;59.850;10.454;2022-12-18T10:09:17;130.10;;;42.67;;
19798;SDS011;10059;59.850;10.454;2022-12-18T10:11:55;147.43;;;50.40;;
19798;SDS011;10059;59.850;10.454;2022-12-18T10:14:30;52.50;;;26.10;;
19798;SDS011;10059;59.850;10.454;2022-12-18T10:17:03;34.40;;;18.80;;
19798;SDS011;10059;59.850;10.454;2022-12-18T10:19:40;42.23;;;22.40;;
19798;SDS011;10059;59.850;10.454;2022-12-18T10:22:18;23.95;;;15.05;;
19798;SDS011;10059;59.850;10.454;2022-12-18T10:24:53;41.73;;;23.93;;
19798;SDS011;10059;59.850;10.454;2022-12-18T10:27:27;24.73;;;13.80;;
19798;SDS011;10059;59.850;10.454;2022-12-18T10:29:55;38.77;;;23.10;;
19798;SDS011;10059;59.850;10.454;2022-12-18T10:32:23;26.77;;;14.43;;
19798;SDS011;10059;59.850;10.454;2022-12-18T10:34:52;33.10;;;17.07;;
19798;SDS011;10059;59.850;10.454;2022-12-18T10:37:21;19.03;;;10.27;;
19798;SDS011;10059;59.850;10.454;2022-12-18T10:40:05;24.63;;;12.03;;
19798;SDS011;10059;59.850;10.454;2022-12-18T10:42:36;37.23;;;18.00;;
19798;SDS011;10059;59.850;10.454;2022-12-18T10:45:07;36.17;;;21.60;;
19798;SDS011;10059;59.850;10.454;2022-12-18T10:47:36;46.80;;;23.93;;
19798;SDS011;10059;59.850;10.454;2022-12-18T10:50:11;15.07;;;7.73;;
19798;SDS011;10059;59.850;10.454;2022-12-18T10:52:52;32.93;;;22.47;;
19798;SDS011;10059;59.850;10.454;2022-12-18T10:55:21;21.47;;;13.80;;
19798;SDS011;10059;59.850;10.454;2022-12-18T10:57:49;35.33;;;21.47;;
19798;SDS011;10059;59.850;10.454;2022-12-18T11:00:21;18.47;;;8.87;;
19798;SDS011;10059;59.850;10.454;2022-12-18T11:02:50;18.90;;;10.03;;
19798;SDS011;10059;59.850;10.454;2022-12-18T11:05:24;23.53;;;12.53;;
19798;SDS011;10059;59.850;10.454;2022-12-18T11:07:53;40.07;;;21.17;;
19798;SDS011;10059;59.850;10.454;2022-12-18T11:10:21;41.67;;;21.83;;
19798;SDS011;10059;59.850;10.454;2022-12-18T11:12:52;40.17;;;22.77;;
19798;SDS011;10059;59.850;10.454;2022-12-18T11:15:20;60.70;;;33.50;;
19798;SDS011;10059;59.850;10.454;2022-12-18T11:17:49;37.67;;;18.63;;
19798;SDS011;10059;59.850;10.454;2022-12-18T11:20:23;22.97;;;11.97;;
19798;SDS011;10059;59.850;10.454;2022-12-18T11:22:56;18.90;;;9.83;;
19798;SDS011;10059;59.850;10.454;2022-12-18T11:25:24;26.33;;;14.60;;
19798;SDS011;10059;59.850;10.454;2022-12-18T11:27:54;51.47;;;24.00;;
19798;SDS011;10059;59.850;10.454;2022-12-18T11:30:24;36.50;;;17.53;;
19798;SDS011;10059;59.850;10.454;2022-12-18T11:32:53;26.53;;;13.83;;
19798;SDS011;10059;59.850;10.454;2022-12-18T11:35:27;17.10;;;9.23;;
19798;SDS011;10059;59.850;10.454;2022-12-18T11:38:02;21.63;;;12.20;;
19798;SDS011;10059;59.850;10.454;2022-12-18T11:40:38;23.07;;;11.90;;
19798;SDS011;10059;59.850;10.454;2022-12-18T11:43:10;24.23;;;11.87;;
19798;SDS011;10059;59.850;10.454;2022-12-18T11:45:41;14.67;;;6.67;;
19798;SDS011;10059;59.850;10.454;2022-12-18T11:48:14;9.80;;;5.13;;
19798;SDS011;10059;59.850;10.454;2022-12-18T11:50:46;6.77;;;3.43;;
19798;SDS011;10059;59.850;10.454;2022-12-18T11:53:16;12.37;;;5.10;;
19798;SDS011;10059;59.850;10.454;2022-12-18T11:55:49;10.70;;;4.10;;
19798;SDS011;10059;59.850;10.454;2022-12-18T11:58:30;8.00;;;3.33;;
19798;SDS011;10059;59.850;10.454;2022-12-18T12:01:06;10.27;;;3.80;;
19798;SDS011;10059;59.850;10.454;2022-12-18T12:03:52;9.23;;;4.10;;
19798;SDS011;10059;59.850;10.454;2022-12-18T12:06:45;7.50;;;3.87;;
19798;SDS011;10059;59.850;10.454;2022-12-18T12:09:18;10.87;;;4.20;;
19798;SDS011;10059;59.850;10.454;2022-12-18T12:11:56;7.80;;;4.13;;
19798;SDS011;10059;59.850;10.454;2022-12-18T12:14:37;6.60;;;3.27;;
19798;SDS011;10059;59.850;10.454;2022-12-18T12:17:13;7.57;;;3.67;;
19798;SDS011;10059;59.850;10.454;2022-12-18T12:19:48;9.97;;;3.10;;
19798;SDS011;10059;59.850;10.454;2022-12-18T12:22:22;7.75;;;3.65;;
19798;SDS011;10059;59.850;10.454;2022-12-18T12:25:00;8.70;;;2.83;;
19798;SDS011;10059;59.850;10.454;2022-12-18T12:27:37;61.73;;;21.00;;
19798;SDS011;10059;59.850;10.454;2022-12-18T12:30:16;143.37;;;48.17;;
19798;SDS011;10059;59.850;10.454;2022-12-18T12:32:50;29.77;;;14.07;;
19798;SDS011;10059;59.850;10.454;2022-12-18T12:35:30;8.67;;;4.50;;
19798;SDS011;10059;59.850;10.454;2022-12-18T12:38:07;7.60;;;3.40;;
19798;SDS011;10059;59.850;10.454;2022-12-18T12:40:37;9.13;;;5.23;;
19798;SDS011;10059;59.850;10.454;2022-12-18T12:43:12;8.50;;;5.20;;
19798;SDS011;10059;59.850;10.454;2022-12-18T12:45:59;7.10;;;3.43;;
19798;SDS011;10059;59.850;10.454;2022-12-18T12:48:35;12.70;;;7.40;;
19798;SDS011;10059;59.850;10.454;2022-12-18T12:51:10;18.37;;;9.97;;
19798;SDS011;10059;59.850;10.454;2022-12-18T12:53:41;12.73;;;6.50;;
19798;SDS011;10059;59.850;10.454;2022-12-18T12:56:08;20.37;;;9.53;;
19798;SDS011;10059;59.850;10.454;2022-12-18T12:58:41;12.60;;;6.10;;
19798;SDS011;10059;59.850;10.454;2022-12-18T13:01:25;15.13;;;7.47;;
19798;SDS011;10059;59.850;10.454;2022-12-18T13:04:02;11.97;;;4.90;;
19798;SDS011;10059;59.850;10.454;2022-12-18T13:06:37;9.80;;;4.10;;
19798;SDS011;10059;59.850;10.454;2022-12-18T13:09:09;5.90;;;3.23;;
19798;SDS011;10059;59.850;10.454;2022-12-18T13:11:37;11.07;;;4.70;;
19798;SDS011;10059;59.850;10.454;2022-12-18T13:14:24;11.40;;;3.80;;
19798;SDS011;10059;59.850;10.454;2022-12-18T13:20:07;8.90;;;3.67;;
19798;SDS011;10059;59.850;10.454;2022-12-18T13:22:37;12.67;;;4.50;;
19798;SDS011;10059;59.850;10.454;2022-12-18T13:25:27;8.00;;;3.20;;
19798;SDS011;10059;59.850;10.454;2022-12-18T13:28:09;131.93;;;51.97;;
19798;SDS011;10059;59.850;10.454;2022-12-18T13:30:42;211.97;;;74.23;;
19798;SDS011;10059;59.850;10.454;2022-12-18T13:36:29;12.30;;;6.57;;
19798;SDS011;10059;59.850;10.454;2022-12-18T13:45:36;9.80;;;5.90;;
19798;SDS011;10059;59.850;10.454;2022-12-18T13:48:12;9.93;;;5.30;;
19798;SDS011;10059;59.850;10.454;2022-12-18T13:50:49;8.53;;;4.10;;
19798;SDS011;10059;59.850;10.454;2022-12-18T13:53:21;10.87;;;5.83;;
19798;SDS011;10059;59.850;10.454;2022-12-18T13:55:50;17.00;;;8.80;;
19798;SDS011;10059;59.850;10.454;2022-12-18T13:58:17;9.47;;;4.07;;
19798;SDS011;10059;59.850;10.454;2022-12-18T14:00:44;9.80;;;4.43;;
19798;SDS011;10059;59.850;10.454;2022-12-18T14:03:16;8.10;;;4.53;;
19798;SDS011;10059;59.850;10.454;2022-12-18T14:05:45;12.50;;;5.00;;
19798;SDS011;10059;59.850;10.454;2022-12-18T14:08:19;8.43;;;4.33;;
19798;SDS011;10059;59.850;10.454;2022-12-18T14:10:47;8.83;;;4.20;;
19798;SDS011;10059;59.850;10.454;2022-12-18T14:13:19;7.97;;;3.40;;
19798;SDS011;10059;59.850;10.454;2022-12-18T14:15:50;24.90;;;12.17;;
19798;SDS011;10059;59.850;10.454;2022-12-18T14:18:19;119.47;;;50.03;;
19798;SDS011;10059;59.850;10.454;2022-12-18T14:20:47;20.57;;;11.03;;
19798;SDS011;10059;59.850;10.454;2022-12-18T14:23:30;17.77;;;9.13;;
19798;SDS011;10059;59.850;10.454;2022-12-18T14:25:58;14.80;;;7.77;;
19798;SDS011;10059;59.850;10.454;2022-12-18T14:28:26;11.73;;;6.00;;
19798;SDS011;10059;59.850;10.454;2022-12-18T14:30:53;14.33;;;7.60;;
19798;SDS011;10059;59.850;10.454;2022-12-18T14:33:21;25.50;;;12.23;;
19798;SDS011;10059;59.850;10.454;2022-12-18T14:35:53;16.23;;;7.33;;
19798;SDS011;10059;59.850;10.454;2022-12-18T14:38:24;16.50;;;6.80;;
19798;SDS011;10059;59.850;10.454;2022-12-18T14:41:00;13.37;;;5.53;;
19798;SDS011;10059;59.850;10.454;2022-12-18T14:43:29;22.90;;;12.57;;
19798;SDS011;10059;59.850;10.454;2022-12-18T14:45:58;20.53;;;9.50;;